Time;durP1;ratioP1;P1;durP2;ratioP2;P2;SDS_P1;SDS_P2;PMS_P1;PMS_P2;Temp;Humidity;BMP_temperature;BMP_pressure;BME280_temperature;BME280_humidity;BME280_pressure;Samples;Min_cycle;Max_cycle;Signal;HPM_P1;HPM_P2
2022/04/04 00:00:38;;;;;;;;;;;;;;;4.85;85.51;98234.63;5076157;28;19988;-76
2022/04/04 00:03:05;;;;;;;;;;;;;;;4.81;85.58;98239.56;5074506;28;19924;-77
2022/04/04 00:05:32;;;;;;;;;;;;;;;4.81;85.84;98233.44;5073191;28;19984;-77
2022/04/04 00:07:58;;;;;;;;;;;;;;;4.82;85.94;98238.53;5071688;28;19993;-77
2022/04/04 00:10:25;;;;;;;;;;;;;;;4.80;86.11;98234.47;5075989;28;19948;-79
2022/04/04 00:12:51;;;;;;;;;;;;;;;4.76;86.42;98231.47;5075845;28;19924;-77
2022/04/04 00:15:17;;;;;;;;;;;;;;;4.76;86.84;98236.75;5073677;28;19932;-76
2022/04/04 00:17:44;;;;;;;;;;;;;;;4.73;86.81;98231.91;5071383;28;19974;-77
2022/04/04 00:20:13;;;;;;;;;;;;;;;4.74;87.02;98232.69;5072730;28;19924;-77
2022/04/04 00:22:40;;;;;;;;;;;;;;;4.64;87.21;98233.19;5078335;28;19931;-77
2022/04/04 00:25:06;;;;;;;;;;;;;;;4.65;87.62;98231.34;5078476;28;19947;-77
2022/04/04 00:27:33;;;;;;;;;;;;;;;4.66;87.74;98233.78;5075799;28;19974;-77
2022/04/04 00:29:59;;;;;;;;;;;;;;;4.67;87.68;98232.75;5075784;28;19956;-77
2022/04/04 00:32:26;;;;;;;;;;;;;;;4.66;87.89;98240.91;5080204;28;20007;-77
2022/04/04 00:34:52;;;;;;;;;;;;;;;4.66;88.11;98240.91;5078849;28;19925;-78
2022/04/04 00:37:20;;;;;;;;;;;;;;;4.59;88.24;98238.31;5076685;28;19924;-77
2022/04/04 00:39:47;;;;;;;;;;;;;;;4.59;88.24;98230.38;5075023;28;20012;-78
2022/04/04 00:42:15;;;;;;;;;;;;;;;4.56;88.47;98233.47;5077818;28;19925;-77
2022/04/04 00:44:41;;;;;;;;;;;;;;;4.58;88.55;98230.63;5078477;28;20083;-77
2022/04/04 00:47:08;;;;;;;;;;;;;;;4.57;88.65;98229.00;5077864;28;19964;-77
2022/04/04 00:49:35;;;;;;;;;;;;;;;4.51;88.70;98235.97;5076376;28;20398;-77
2022/04/04 00:52:01;;;;;;;;;;;;;;;4.53;88.94;98231.25;5076146;28;19925;-77
2022/04/04 00:54:29;;;;;;;;;;;;;;;4.50;88.84;98236.16;5078065;28;19934;-77
2022/04/04 00:56:56;;;;;;;;;;;;;;;4.49;88.92;98239.84;5078249;28;19978;-77
2022/04/04 00:59:23;;;;;;;;;;;;;;;4.47;88.75;98239.22;5075295;28;19933;-76
2022/04/04 01:01:50;;;;;;;;;;;;;;;4.46;88.88;98234.97;5075646;28;19932;-76
2022/04/04 01:04:17;;;;;;;;;;;;;;;4.45;88.69;98228.88;5077582;28;19964;-77
2022/04/04 01:06:44;;;;;;;;;;;;;;;4.42;88.50;98233.78;5079056;28;19924;-77
2022/04/04 01:09:14;;;;;;;;;;;;;;;4.41;88.38;98232.16;5078257;28;20134;-77
2022/04/04 01:11:55;;;;;;;;;;;;;;;4.37;88.29;98229.13;5074052;28;19992;-76
2022/04/04 01:14:22;;;;;;;;;;;;;;;4.37;88.41;98237.06;5075734;28;19955;-76
2022/04/04 01:16:49;;;;;;;;;;;;;;;4.32;88.41;98227.16;5078751;28;19955;-75
2022/04/04 01:19:15;;;;;;;;;;;;;;;4.36;88.23;98230.19;5077187;28;19924;-76
2022/04/04 01:21:42;;;;;;;;;;;;;;;4.29;88.26;98224.94;5076502;28;19935;-77
2022/04/04 01:24:15;;;;;;;;;;;;;;;4.36;88.33;98217.75;5075563;28;20002;-77
2022/04/04 01:26:45;;;;;;;;;;;;;;;4.36;88.23;98214.31;5077441;28;20336;-77
2022/04/04 01:29:12;;;;;;;;;;;;;;;4.27;88.49;98210.31;5076356;28;19929;-78
2022/04/04 01:31:38;;;;;;;;;;;;;;;4.28;88.62;98204.00;5075434;28;19960;-78
2022/04/04 01:34:05;;;;;;;;;;;;;;;4.23;88.71;98207.28;5072916;28;20511;-77
2022/04/04 01:36:31;;;;;;;;;;;;;;;4.24;88.77;98203.59;5077309;28;20634;-76
2022/04/04 01:38:57;;;;;;;;;;;;;;;4.21;88.68;98206.69;5077674;28;19939;-77
2022/04/04 01:41:25;;;;;;;;;;;;;;;4.21;88.74;98196.09;5074395;28;19964;-77
2022/04/04 01:43:52;;;;;;;;;;;;;;;4.23;88.69;98198.56;5073539;28;19924;-76
2022/04/04 01:46:24;;;;;;;;;;;;;;;4.22;88.48;98197.75;5075592;28;19936;-76
2022/04/04 01:48:51;;;;;;;;;;;;;;;4.27;88.59;98199.75;5077043;28;19963;-77
2022/04/04 01:51:18;;;;;;;;;;;;;;;4.14;88.83;98184.00;5076423;28;19935;-76
2022/04/04 01:53:45;;;;;;;;;;;;;;;4.17;88.92;98181.72;5074976;28;20174;-78
2022/04/04 01:56:11;;;;;;;;;;;;;;;4.21;88.85;98187.38;5074526;28;19924;-77
2022/04/04 01:58:40;;;;;;;;;;;;;;;4.17;89.00;98179.09;5077772;28;19924;-77
2022/04/04 02:01:10;;;;;;;;;;;;;;;4.16;89.03;98188.03;5078167;28;19924;-77
2022/04/04 02:03:36;;;;;;;;;;;;;;;4.20;88.75;98173.38;5075121;28;20400;-77
2022/04/04 02:06:03;;;;;;;;;;;;;;;4.16;88.85;98181.94;5073766;28;20377;-77
2022/04/04 02:08:30;;;;;;;;;;;;;;;4.14;88.98;98176.06;5066813;28;19956;-78
2022/04/04 02:10:56;;;;;;;;;;;;;;;4.14;89.14;98168.94;5073058;28;19925;-77
2022/04/04 02:13:25;;;;;;;;;;;;;;;4.13;89.24;98175.25;5079010;28;20361;-77
2022/04/04 02:15:53;;;;;;;;;;;;;;;4.12;89.42;98168.31;5073016;28;19924;-77
2022/04/04 02:18:20;;;;;;;;;;;;;;;4.09;89.59;98166.13;5076288;28;19964;-77
2022/04/04 02:20:46;;;;;;;;;;;;;;;4.09;89.91;98166.13;5076630;28;19924;-76
2022/04/04 02:23:17;;;;;;;;;;;;;;;4.02;90.16;98165.38;5074819;28;19971;-77
2022/04/04 02:25:44;;;;;;;;;;;;;;;4.05;90.31;98166.78;5074393;28;19977;-77
2022/04/04 02:28:11;;;;;;;;;;;;;;;4.02;90.60;98170.66;5075068;28;19935;-77
2022/04/04 02:30:37;;;;;;;;;;;;;;;4.05;90.50;98170.22;5077005;28;19928;-77
2022/04/04 02:33:05;;;;;;;;;;;;;;;4.00;90.74;98164.75;5076699;28;19989;-78
2022/04/04 02:35:32;;;;;;;;;;;;;;;4.03;91.10;98161.69;5074139;28;20390;-77
2022/04/04 02:37:58;;;;;;;;;;;;;;;4.04;91.04;98158.03;5072493;28;19979;-76
2022/04/04 02:40:25;;;;;;;;;;;;;;;4.04;90.88;98159.88;5075760;28;19936;-77
2022/04/04 02:42:51;;;;;;;;;;;;;;;4.02;91.09;98152.16;5077317;28;20295;-76
2022/04/04 02:45:18;;;;;;;;;;;;;;;4.00;91.32;98156.03;5074266;28;19939;-77
2022/04/04 02:47:44;;;;;;;;;;;;;;;3.97;91.67;98144.06;5072987;28;19924;-77
2022/04/04 02:50:12;;;;;;;;;;;;;;;3.86;91.75;98149.22;5075095;28;19925;-77
2022/04/04 02:52:39;;;;;;;;;;;;;;;3.53;93.80;98155.53;5076605;28;19996;-77
2022/04/04 02:57:46;;;;;;;;;;;;;;;3.55;95.65;98148.22;5071821;28;19932;-77
2022/04/04 03:00:14;;;;;;;;;;;;;;;3.67;95.13;98145.69;5073422;28;19947;-77
2022/04/04 03:02:40;;;;;;;;;;;;;;;3.79;94.31;98146.63;5076306;28;19924;-77
2022/04/04 03:05:07;;;;;;;;;;;;;;;3.82;94.01;98140.91;5076822;28;19995;-77
2022/04/04 03:07:34;;;;;;;;;;;;;;;3.85;93.40;98142.31;5072465;28;19944;-77
2022/04/04 03:10:01;;;;;;;;;;;;;;;3.88;93.23;98137.41;5073605;28;20585;-77
2022/04/04 03:12:27;;;;;;;;;;;;;;;3.87;93.15;98145.56;5077159;28;19920;-77
2022/04/04 03:14:54;;;;;;;;;;;;;;;3.86;92.83;98139.47;5075961;28;20184;-77
2022/04/04 03:17:21;;;;;;;;;;;;;;;3.83;93.06;98137.25;5073177;28;19950;-77
2022/04/04 03:19:47;;;;;;;;;;;;;;;3.84;93.38;98140.72;5072832;28;19936;-77
2022/04/04 03:22:13;;;;;;;;;;;;;;;3.78;93.94;98147.63;5073991;28;20268;-78
2022/04/04 03:24:41;;;;;;;;;;;;;;;3.79;94.22;98142.16;5076556;28;19925;-77
2022/04/04 03:27:08;;;;;;;;;;;;;;;3.64;94.26;98146.13;5075809;28;19928;-77
2022/04/04 03:29:35;;;;;;;;;;;;;;;3.63;94.79;98149.78;5072961;28;19927;-78
2022/04/04 03:32:01;;;;;;;;;;;;;;;3.68;94.93;98139.41;5072339;28;19968;-77
2022/04/04 03:34:28;;;;;;;;;;;;;;;3.78;94.61;98137.06;5075829;28;19976;-78
2022/04/04 03:36:54;;;;;;;;;;;;;;;3.68;94.48;98139.41;5076494;28;19984;-77
2022/04/04 03:39:20;;;;;;;;;;;;;;;3.56;95.41;98144.53;5074344;28;19964;-78
2022/04/04 03:41:48;;;;;;;;;;;;;;;3.68;95.16;98144.69;5072763;28;19928;-78
2022/04/04 03:44:15;;;;;;;;;;;;;;;3.66;94.49;98136.16;5073856;28;19958;-78
2022/04/04 03:46:41;;;;;;;;;;;;;;;3.63;94.64;98145.31;5077610;28;19931;-78
2022/04/04 03:49:08;;;;;;;;;;;;;;;3.62;94.39;98142.91;5076945;28;19950;-77
2022/04/04 03:51:34;;;;;;;;;;;;;;;3.65;94.19;98132.69;5075062;28;19925;-77
2022/04/04 03:54:01;;;;;;;;;;;;;;;3.63;94.55;98142.66;5074779;28;19925;-77
2022/04/04 03:56:27;;;;;;;;;;;;;;;3.65;94.55;98140.63;5076053;28;19964;-77
2022/04/04 03:58:55;;;;;;;;;;;;;;;3.46;95.35;98143.41;5076601;28;19952;-77
2022/04/04 04:01:22;;;;;;;;;;;;;;;3.38;96.43;98135.69;5075800;28;19946;-77
2022/04/04 04:03:48;;;;;;;;;;;;;;;3.30;96.79;98135.97;5072789;28;19935;-77
2022/04/04 04:06:16;;;;;;;;;;;;;;;3.38;96.82;98135.69;5075463;28;19925;-77
2022/04/04 04:08:44;;;;;;;;;;;;;;;3.38;96.78;98133.06;5077240;28;19939;-77
2022/04/04 04:11:10;;;;;;;;;;;;;;;3.44;96.72;98140.13;5076226;28;19990;-77
2022/04/04 04:13:37;;;;;;;;;;;;;;;3.42;96.67;98135.09;5074127;28;19929;-77
2022/04/04 04:16:05;;;;;;;;;;;;;;;3.43;96.53;98141.19;5072555;28;19932;-77
2022/04/04 04:18:33;;;;;;;;;;;;;;;3.42;96.13;98139.53;5076533;28;19925;-77
2022/04/04 04:20:59;;;;;;;;;;;;;;;3.45;96.51;98136.47;5076235;28;20369;-76
2022/04/04 04:23:26;;;;;;;;;;;;;;;3.30;96.96;98133.31;5074133;28;19925;-77
2022/04/04 04:25:52;;;;;;;;;;;;;;;3.27;97.71;98137.19;5072429;28;19971;-77
2022/04/04 04:28:19;;;;;;;;;;;;;;;3.09;98.75;98132.63;5075539;28;19925;-77
2022/04/04 04:30:46;;;;;;;;;;;;;;;3.14;99.14;98127.50;5075892;28;19943;-77
2022/04/04 04:33:14;;;;;;;;;;;;;;;3.10;99.27;98139.50;5074395;28;19925;-78
2022/04/04 04:35:40;;;;;;;;;;;;;;;3.00;99.65;98133.84;5073492;28;19925;-78
2022/04/04 04:38:07;;;;;;;;;;;;;;;2.76;100.00;98134.53;5072189;28;19925;-78
2022/04/04 04:40:33;;;;;;;;;;;;;;;2.70;100.00;98136.19;5075320;28;19970;-78
2022/04/04 04:43:00;;;;;;;;;;;;;;;2.75;100.00;98146.13;5076753;28;19924;-77
2022/04/04 04:45:27;;;;;;;;;;;;;;;2.94;100.00;98139.97;5072201;28;19992;-78
2022/04/04 04:47:54;;;;;;;;;;;;;;;2.97;100.00;98131.63;5072243;28;19951;-77
2022/04/04 04:50:22;;;;;;;;;;;;;;;2.91;100.00;98135.09;5074082;28;19925;-77
2022/04/04 04:52:49;;;;;;;;;;;;;;;2.84;100.00;98126.44;5076651;28;20004;-77
2022/04/04 04:55:17;;;;;;;;;;;;;;;2.50;100.00;98132.81;5073763;28;20000;-77
2022/04/04 04:57:43;;;;;;;;;;;;;;;2.56;100.00;98134.63;5073415;28;19932;-77
2022/04/04 05:00:11;;;;;;;;;;;;;;;2.48;100.00;98134.81;5074168;28;19968;-77
2022/04/04 05:02:38;;;;;;;;;;;;;;;2.53;100.00;98139.50;5075189;28;20341;-79
2022/04/04 05:05:05;;;;;;;;;;;;;;;2.46;100.00;98142.13;5075342;28;19948;-78
2022/04/04 05:07:33;;;;;;;;;;;;;;;2.11;100.00;98144.19;5071930;28;19935;-79
2022/04/04 05:10:00;;;;;;;;;;;;;;;2.30;100.00;98132.00;5073610;28;19996;-77
2022/04/04 05:12:26;;;;;;;;;;;;;;;2.32;100.00;98140.53;5078753;28;19948;-78
2022/04/04 05:14:52;;;;;;;;;;;;;;;2.15;100.00;98140.16;5078666;28;19951;-78
2022/04/04 05:17:19;;;;;;;;;;;;;;;2.04;100.00;98142.59;5076582;28;20188;-77
2022/04/04 05:19:45;;;;;;;;;;;;;;;1.76;100.00;98145.41;5075119;28;19925;-77
2022/04/04 05:22:14;;;;;;;;;;;;;;;1.90;100.00;98141.75;5075919;28;19991;-78
2022/04/04 05:24:41;;;;;;;;;;;;;;;2.19;100.00;98137.91;5078512;28;19932;-77
2022/04/04 05:27:08;;;;;;;;;;;;;;;2.58;100.00;98134.41;5079243;28;19932;-77
2022/04/04 05:29:34;;;;;;;;;;;;;;;2.46;100.00;98143.97;5076499;28;19956;-77
2022/04/04 05:32:01;;;;;;;;;;;;;;;2.54;100.00;98135.81;5075277;28;19932;-76
2022/04/04 05:34:27;;;;;;;;;;;;;;;2.61;100.00;98140.06;5078690;28;19931;-78
2022/04/04 05:36:54;;;;;;;;;;;;;;;2.55;100.00;98140.09;5078540;28;19925;-77
2022/04/04 05:39:20;;;;;;;;;;;;;;;2.61;100.00;98141.91;5076788;28;19929;-77
2022/04/04 05:41:49;;;;;;;;;;;;;;;2.38;100.00;98145.00;5074015;28;19924;-77
2022/04/04 05:44:17;;;;;;;;;;;;;;;2.33;100.00;98142.16;5078057;28;19984;-76
2022/04/04 05:46:43;;;;;;;;;;;;;;;2.10;100.00;98142.56;5078720;28;19925;-77
2022/04/04 05:49:10;;;;;;;;;;;;;;;1.89;100.00;98145.41;5078678;28;19932;-77
2022/04/04 05:51:36;;;;;;;;;;;;;;;1.35;100.00;98144.72;5074902;28;20030;-77
2022/04/04 05:54:04;;;;;;;;;;;;;;;1.04;100.00;98138.16;5076461;28;19986;-77
2022/04/04 05:56:32;;;;;;;;;;;;;;;0.76;100.00;98139.25;5067818;28;19975;-77
2022/04/04 05:59:00;;;;;;;;;;;;;;;1.26;100.00;98125.69;5076014;28;19933;-78
2022/04/04 06:01:26;;;;;;;;;;;;;;;1.46;100.00;98138.88;5077337;28;19988;-77
2022/04/04 06:03:52;;;;;;;;;;;;;;;1.89;100.00;98137.50;5078937;28;19924;-77
2022/04/04 06:06:19;;;;;;;;;;;;;;;1.68;100.00;98132.44;5075958;28;20265;-77
2022/04/04 06:08:45;;;;;;;;;;;;;;;1.38;100.00;98137.25;5075794;28;20020;-76
2022/04/04 06:11:11;;;;;;;;;;;;;;;1.66;100.00;98134.47;5076821;28;19920;-79
2022/04/04 06:13:38;;;;;;;;;;;;;;;1.64;100.00;98136.47;5080032;28;19929;-76
2022/04/04 06:16:06;;;;;;;;;;;;;;;2.14;100.00;98127.97;5074312;28;19921;-77
2022/04/04 06:18:34;;;;;;;;;;;;;;;2.31;100.00;98132.84;5078944;28;20023;-77
2022/04/04 06:21:02;;;;;;;;;;;;;;;2.58;100.00;98129.13;5077221;28;19999;-76
2022/04/04 06:23:29;;;;;;;;;;;;;;;2.89;100.00;98115.22;5075227;28;19979;-77
2022/04/04 06:25:56;;;;;;;;;;;;;;;2.21;100.00;98127.16;5074112;28;20352;-77
2022/04/04 06:28:23;;;;;;;;;;;;;;;1.81;100.00;98121.91;5077847;28;19929;-77
2022/04/04 06:30:51;;;;;;;;;;;;;;;2.49;100.00;98130.38;5077281;28;19924;-76
2022/04/04 06:33:18;;;;;;;;;;;;;;;3.28;100.00;98126.41;5076952;28;19925;-78
2022/04/04 06:35:45;;;;;;;;;;;;;;;3.63;100.00;98118.91;5075709;28;19924;-77
2022/04/04 06:38:12;;;;;;;;;;;;;;;4.21;100.00;98110.72;5075841;28;19948;-78
2022/04/04 06:40:39;;;;;;;;;;;;;;;4.47;98.15;98109.66;5077423;28;19924;-77
2022/04/04 06:43:05;;;;;;;;;;;;;;;4.21;96.56;98122.09;5078563;28;20324;-78
2022/04/04 06:45:32;;;;;;;;;;;;;;;4.27;98.49;98113.28;5075513;28;19925;-77
2022/04/04 06:47:58;;;;;;;;;;;;;;;4.44;99.21;98115.38;5075057;28;19929;-77
2022/04/04 06:50:26;;;;;;;;;;;;;;;4.78;96.52;98109.53;5076288;28;19968;-77
2022/04/04 06:52:53;;;;;;;;;;;;;;;4.80;94.98;98110.09;5078217;28;19965;-77
2022/04/04 06:55:20;;;;;;;;;;;;;;;4.29;96.19;98113.91;5074581;28;20534;-76
2022/04/04 06:57:46;;;;;;;;;;;;;;;3.75;100.00;98113.72;5073328;28;19929;-77
2022/04/04 07:00:15;;;;;;;;;;;;;;;3.68;100.00;98113.78;5074399;28;19971;-77
2022/04/04 07:02:41;;;;;;;;;;;;;;;4.09;100.00;98120.38;5078404;28;19988;-77
2022/04/04 07:05:08;;;;;;;;;;;;;;;3.42;100.00;98105.22;5078286;28;19952;-77
2022/04/04 07:07:36;;;;;;;;;;;;;;;2.97;100.00;98110.53;5073963;28;19925;-77
2022/04/04 07:10:03;;;;;;;;;;;;;;;2.67;100.00;98107.59;5075113;28;19947;-77
2022/04/04 07:12:29;;;;;;;;;;;;;;;2.49;100.00;98109.28;5067909;28;19944;-77
2022/04/04 07:14:56;;;;;;;;;;;;;;;2.59;100.00;98114.94;5078942;28;20023;-78
2022/04/04 07:17:23;;;;;;;;;;;;;;;2.95;100.00;98109.13;5074719;28;19959;-77
2022/04/04 07:19:49;;;;;;;;;;;;;;;2.84;100.00;98101.88;5073790;28;19925;-77
2022/04/04 07:22:16;;;;;;;;;;;;;;;3.81;100.00;98099.66;5075322;28;20511;-77
2022/04/04 07:24:44;;;;;;;;;;;;;;;3.82;100.00;98096.00;5077459;28;19980;-76
2022/04/04 07:27:10;;;;;;;;;;;;;;;4.26;100.00;98093.19;5077781;28;19956;-77
2022/04/04 07:29:37;;;;;;;;;;;;;;;4.68;98.89;98096.00;5074850;28;19960;-76
2022/04/04 07:32:05;;;;;;;;;;;;;;;4.56;96.91;98089.81;5074870;28;19931;-78
2022/04/04 07:34:31;;;;;;;;;;;;;;;4.76;96.19;98078.00;5065763;28;19975;-76
2022/04/04 07:36:58;;;;;;;;;;;;;;;4.59;93.98;98086.75;5073054;28;19948;-77
2022/04/04 07:39:25;;;;;;;;;;;;;;;4.76;94.69;98083.31;5075931;28;19928;-77
2022/04/04 07:41:53;;;;;;;;;;;;;;;3.78;95.14;98084.25;5075853;28;19934;-77
2022/04/04 07:44:21;;;;;;;;;;;;;;;3.35;97.41;98078.88;5075414;28;19929;-78
2022/04/04 07:46:48;;;;;;;;;;;;;;;3.12;100.00;98083.88;5076929;28;20182;-77
2022/04/04 07:49:14;;;;;;;;;;;;;;;3.28;100.00;98086.00;5076587;28;19925;-77
2022/04/04 07:51:41;;;;;;;;;;;;;;;2.77;100.00;98085.25;5073598;28;19937;-77
2022/04/04 07:54:07;;;;;;;;;;;;;;;2.91;100.00;98089.47;5073773;28;19935;-77
2022/04/04 07:56:34;;;;;;;;;;;;;;;3.20;100.00;98083.63;5078158;28;19959;-77
2022/04/04 07:59:02;;;;;;;;;;;;;;;3.65;100.00;98092.28;5076717;28;19931;-77
2022/04/04 08:01:28;;;;;;;;;;;;;;;3.92;99.78;98085.78;5073025;28;20385;-76
2022/04/04 08:03:54;;;;;;;;;;;;;;;3.92;96.88;98080.50;5074309;28;19924;-78
2022/04/04 08:06:21;;;;;;;;;;;;;;;3.93;96.59;98087.38;5075350;28;19925;-77
2022/04/04 08:08:47;;;;;;;;;;;;;;;4.10;95.95;98077.88;5076232;28;19925;-77
2022/04/04 08:11:14;;;;;;;;;;;;;;;4.31;94.23;98071.38;5075018;28;19996;-77
2022/04/04 08:13:44;;;;;;;;;;;;;;;4.45;92.84;98074.69;5073329;28;19925;-77
2022/04/04 08:16:12;;;;;;;;;;;;;;;4.47;92.14;98067.34;5073677;28;19925;-77
2022/04/04 08:18:39;;;;;;;;;;;;;;;4.42;91.61;98065.38;5077499;28;19951;-77
2022/04/04 08:21:06;;;;;;;;;;;;;;;4.32;91.84;98073.00;5075846;28;19920;-77
2022/04/04 08:23:32;;;;;;;;;;;;;;;4.39;91.89;98072.94;5073783;28;20027;-77
2022/04/04 08:25:59;;;;;;;;;;;;;;;4.18;92.52;98056.44;5074400;28;19929;-77
2022/04/04 08:28:25;;;;;;;;;;;;;;;4.09;92.68;98062.22;5076984;28;19928;-77
2022/04/04 08:30:52;;;;;;;;;;;;;;;4.26;91.47;98060.66;5077797;28;19947;-77
2022/04/04 08:33:20;;;;;;;;;;;;;;;4.37;90.08;98052.00;5075493;28;19925;-77
2022/04/04 08:35:46;;;;;;;;;;;;;;;4.37;89.57;98059.91;5073548;28;20445;-77
2022/04/04 08:38:12;;;;;;;;;;;;;;;4.14;89.42;98046.53;5074997;28;19924;-77
2022/04/04 08:40:39;;;;;;;;;;;;;;;4.06;89.34;98050.28;5078200;28;19924;-77
2022/04/04 08:43:11;;;;;;;;;;;;;;;4.19;90.33;98047.50;5079035;28;19982;-77
2022/04/04 08:45:39;;;;;;;;;;;;;;;4.16;89.55;98044.47;5080062;28;19920;-78
2022/04/04 08:48:06;;;;;;;;;;;;;;;4.24;89.21;98047.66;5078873;28;19960;-77
2022/04/04 08:50:34;;;;;;;;;;;;;;;4.29;88.12;98039.06;5083113;28;19970;-77
2022/04/04 08:53:01;;;;;;;;;;;;;;;4.20;88.54;98029.81;5083497;28;19928;-78
2022/04/04 08:55:28;;;;;;;;;;;;;;;4.36;88.47;98024.72;5079959;28;19925;-77
2022/04/04 08:57:56;;;;;;;;;;;;;;;4.19;89.27;98028.19;5078879;28;19951;-77
2022/04/04 09:00:22;;;;;;;;;;;;;;;4.47;88.13;98022.38;5079839;28;19925;-77
2022/04/04 09:02:59;;;;;;;;;;;;;;;4.61;86.58;98016.72;5078952;28;19924;-77
2022/04/04 09:05:26;;;;;;;;;;;;;;;4.53;86.63;98019.66;5077765;28;19971;-77
2022/04/04 09:08:00;;;;;;;;;;;;;;;4.59;86.50;98010.03;5077723;28;19925;-78
2022/04/04 09:10:31;;;;;;;;;;;;;;;4.67;85.14;98004.47;5079520;28;19924;-77
2022/04/04 09:13:05;;;;;;;;;;;;;;;4.66;84.71;97997.53;5080205;28;19984;-77
2022/04/04 09:15:48;;;;;;;;;;;;;;;4.66;83.34;97994.91;5048996;28;19920;-77
2022/04/04 09:18:15;;;;;;;;;;;;;;;4.70;75.28;97998.72;5074613;28;19932;-77
2022/04/04 09:20:47;;;;;;;;;;;;;;;4.67;81.41;97991.25;5081489;28;19924;-77
2022/04/04 09:23:15;;;;;;;;;;;;;;;4.85;83.03;97981.44;5080079;28;19951;-77
2022/04/04 09:25:41;;;;;;;;;;;;;;;5.13;81.86;97985.31;5077642;28;19992;-77
2022/04/04 09:28:15;;;;;;;;;;;;;;;5.24;80.83;97977.38;5077926;28;19999;-78
2022/04/04 09:30:41;;;;;;;;;;;;;;;5.50;79.83;97972.72;5080025;28;19931;-77
2022/04/04 09:33:08;;;;;;;;;;;;;;;5.61;78.16;97970.06;5078176;28;19996;-77
2022/04/04 09:35:44;;;;;;;;;;;;;;;5.91;78.11;97970.00;5075414;28;19925;-77
2022/04/04 09:38:13;;;;;;;;;;;;;;;6.00;77.85;97958.00;5077168;28;19929;-78
2022/04/04 09:40:41;;;;;;;;;;;;;;;6.01;79.09;97958.78;5079725;28;19924;-77
2022/04/04 09:43:07;;;;;;;;;;;;;;;6.16;77.03;97961.78;5078144;28;19989;-78
2022/04/04 09:45:38;;;;;;;;;;;;;;;6.06;76.29;97957.06;5075251;28;19947;-78
2022/04/04 09:48:06;;;;;;;;;;;;;;;6.01;74.07;97935.75;5076292;28;19951;-78
2022/04/04 09:50:37;;;;;;;;;;;;;;;5.89;73.48;97956.16;5068636;28;19935;-79
2022/04/04 09:53:04;;;;;;;;;;;;;;;5.98;72.85;97949.47;5076364;28;19924;-78
2022/04/04 09:55:32;;;;;;;;;;;;;;;5.93;72.19;97944.88;5067149;28;19967;-78
2022/04/04 09:58:00;;;;;;;;;;;;;;;6.01;71.46;97938.38;5074493;28;20344;-78
2022/04/04 10:00:27;;;;;;;;;;;;;;;5.97;70.69;97938.03;5079174;28;19931;-78
2022/04/04 10:02:55;;;;;;;;;;;;;;;5.94;70.49;97924.47;5077582;28;19924;-78
2022/04/04 10:05:22;;;;;;;;;;;;;;;5.81;72.43;97928.16;5075182;28;19920;-77
2022/04/04 10:07:50;;;;;;;;;;;;;;;5.86;73.19;97914.22;5074007;28;20443;-78
2022/04/04 10:10:17;;;;;;;;;;;;;;;5.87;73.57;97931.72;5077304;28;19980;-78
2022/04/04 10:12:44;;;;;;;;;;;;;;;5.83;72.90;97914.66;5077395;28;19981;-77
2022/04/04 10:15:11;;;;;;;;;;;;;;;5.94;72.38;97913.88;5076378;28;19967;-77
2022/04/04 10:17:38;;;;;;;;;;;;;;;5.87;72.53;97914.00;5073240;28;19970;-76
2022/04/04 10:20:06;;;;;;;;;;;;;;;5.86;72.07;97911.56;5073512;28;19948;-76
2022/04/04 10:22:34;;;;;;;;;;;;;;;5.85;73.63;97907.25;5078351;28;19932;-77
2022/04/04 10:25:02;;;;;;;;;;;;;;;5.85;72.71;97891.34;5077935;28;19928;-77
2022/04/04 10:27:29;;;;;;;;;;;;;;;5.95;72.42;97887.13;5074751;28;19925;-77
2022/04/04 10:30:00;;;;;;;;;;;;;;;5.83;71.97;97883.66;5073535;28;19924;-77
2022/04/04 10:32:28;;;;;;;;;;;;;;;5.81;71.09;97880.44;5077650;28;19921;-77
2022/04/04 10:34:55;;;;;;;;;;;;;;;5.83;71.09;97886.31;5076665;28;19967;-76
2022/04/04 10:37:28;;;;;;;;;;;;;;;5.96;69.32;97877.31;5074574;28;19952;-76
2022/04/04 10:39:55;;;;;;;;;;;;;;;5.96;69.17;97872.84;5073568;28;19924;-76
2022/04/04 10:42:30;;;;;;;;;;;;;;;5.81;66.87;97869.84;5076950;28;19947;-77
2022/04/04 10:44:58;;;;;;;;;;;;;;;5.83;70.34;97865.09;5076654;28;19935;-76
2022/04/04 10:47:26;;;;;;;;;;;;;;;5.87;68.10;97861.00;5074842;28;19928;-76
2022/04/04 10:49:55;;;;;;;;;;;;;;;5.90;69.62;97852.56;5074677;28;19928;-76
2022/04/04 10:52:37;;;;;;;;;;;;;;;6.01;69.99;97856.22;5075460;28;19936;-75
2022/04/04 10:55:24;;;;;;;;;;;;;;;6.14;67.76;97849.84;5076585;28;19924;-77
2022/04/04 10:57:51;;;;;;;;;;;;;;;6.14;68.24;97829.44;5044830;28;19941;-76
2022/04/04 11:00:18;;;;;;;;;;;;;;;6.09;70.32;97833.84;5073506;28;19956;-77
2022/04/04 11:02:45;;;;;;;;;;;;;;;6.11;67.96;97837.88;5076512;28;19920;-77
2022/04/04 11:08:03;;;;;;;;;;;;;;;6.21;66.15;97826.66;5073786;28;19932;-75
2022/04/04 11:10:37;;;;;;;;;;;;;;;6.26;69.09;97824.06;5075883;28;19924;-76
2022/04/04 11:13:07;;;;;;;;;;;;;;;6.34;67.50;97813.91;5076103;28;19924;-76
2022/04/04 11:15:43;;;;;;;;;;;;;;;6.34;65.60;97810.44;5066567;28;20250;-76
2022/04/04 11:18:11;;;;;;;;;;;;;;;6.29;67.45;97810.34;5074805;28;19951;-76
2022/04/04 11:20:43;;;;;;;;;;;;;;;6.34;66.04;97795.34;5076425;28;19935;-76
2022/04/04 11:23:11;;;;;;;;;;;;;;;6.41;65.28;97795.19;5076900;28;19935;-76
2022/04/04 11:25:38;;;;;;;;;;;;;;;6.40;67.04;97775.84;5073790;28;19924;-78
2022/04/04 11:28:05;;;;;;;;;;;;;;;6.45;67.83;97781.22;5074360;28;19978;-77
2022/04/04 11:30:32;;;;;;;;;;;;;;;6.71;64.34;97771.81;5064707;28;19931;-77
2022/04/04 11:32:59;;;;;;;;;;;;;;;6.60;62.30;97778.00;5074143;28;20210;-76
2022/04/04 11:35:30;;;;;;;;;;;;;;;6.71;64.13;97763.06;5075451;28;19925;-75
2022/04/04 11:38:01;;;;;;;;;;;;;;;6.82;63.05;97760.31;5074977;28;20231;-76
2022/04/04 11:40:33;;;;;;;;;;;;;;;6.80;63.49;97759.75;5072244;28;19991;-77
2022/04/04 11:43:02;;;;;;;;;;;;;;;6.98;62.28;97753.38;5076832;28;19925;-77
2022/04/04 11:45:33;;;;;;;;;;;;;;;7.08;62.07;97748.22;5072429;28;19921;-78
2022/04/04 11:48:02;;;;;;;;;;;;;;;7.12;62.48;97748.53;5073710;28;19939;-77
2022/04/04 11:50:30;;;;;;;;;;;;;;;7.12;61.54;97743.22;5075613;28;20060;-76
2022/04/04 11:52:59;;;;;;;;;;;;;;;7.21;60.59;97741.75;5077035;28;20011;-76
2022/04/04 11:55:27;;;;;;;;;;;;;;;7.17;60.20;97735.31;5074074;28;19943;-76
2022/04/04 11:57:57;;;;;;;;;;;;;;;7.16;59.36;97731.84;5071783;28;19925;-76
2022/04/04 12:00:24;;;;;;;;;;;;;;;7.27;59.75;97733.59;5074323;28;19925;-76
2022/04/04 12:02:50;;;;;;;;;;;;;;;7.24;60.30;97726.13;5075569;28;20649;-77
2022/04/04 12:05:21;;;;;;;;;;;;;;;7.18;60.43;97721.78;5073087;28;19925;-77
2022/04/04 12:07:48;;;;;;;;;;;;;;;7.25;59.73;97722.41;5071587;28;19925;-77
2022/04/04 12:10:16;;;;;;;;;;;;;;;7.20;60.03;97725.03;5073894;28;19932;-77
2022/04/04 12:12:45;;;;;;;;;;;;;;;7.22;60.34;97712.28;5074777;28;19925;-77
2022/04/04 12:15:12;;;;;;;;;;;;;;;7.21;59.26;97696.63;5073915;28;19972;-77
2022/04/04 12:17:38;;;;;;;;;;;;;;;7.28;60.22;97699.88;5072680;28;19935;-77
2022/04/04 12:20:09;;;;;;;;;;;;;;;7.18;59.82;97695.22;5075336;28;19968;-77
2022/04/04 12:25:20;;;;;;;;;;;;;;;7.34;61.49;97685.59;5077403;28;19935;-77
2022/04/04 12:27:57;;;;;;;;;;;;;;;7.31;61.57;97681.59;5078841;28;20004;-76
2022/04/04 12:30:31;;;;;;;;;;;;;;;7.22;62.65;97672.44;5076389;28;19924;-76
2022/04/04 12:33:06;;;;;;;;;;;;;;;7.24;62.25;97662.38;5075120;28;19925;-76
2022/04/04 12:35:33;;;;;;;;;;;;;;;7.22;63.18;97653.06;5069258;28;19925;-76
2022/04/04 12:37:59;;;;;;;;;;;;;;;7.19;63.98;97661.50;5077402;28;19925;-77
2022/04/04 12:40:27;;;;;;;;;;;;;;;7.28;62.62;97658.19;5078748;28;19950;-76
2022/04/04 12:43:04;;;;;;;;;;;;;;;7.25;62.10;97653.38;5079074;28;19984;-76
2022/04/04 12:45:33;;;;;;;;;;;;;;;7.19;62.82;97643.72;5068511;28;19924;-76
2022/04/04 12:48:00;;;;;;;;;;;;;;;7.15;64.54;97639.97;5076914;28;20023;-77
2022/04/04 12:50:37;;;;;;;;;;;;;;;7.12;65.04;97639.66;5079339;28;19953;-76
2022/04/04 12:53:04;;;;;;;;;;;;;;;7.13;66.45;97631.44;5079851;28;20003;-77
2022/04/04 12:55:30;;;;;;;;;;;;;;;7.19;64.14;97633.09;5067167;28;19932;-77
2022/04/04 12:58:14;;;;;;;;;;;;;;;7.18;63.72;97628.84;5075183;28;19929;-78
2022/04/04 13:00:42;;;;;;;;;;;;;;;7.16;65.53;97612.34;5068065;28;19979;-76
2022/04/04 13:03:17;;;;;;;;;;;;;;;7.18;63.99;97599.63;5076997;28;19925;-76
2022/04/04 13:05:46;;;;;;;;;;;;;;;7.13;62.80;97599.56;5080072;28;19975;-75